sensor_id;sensor_type;location;lat;lon;timestamp;P1;durP1;ratioP1;P2;durP2;ratioP2
43527;SDS011;52359;42.658;23.320;2023-06-10T07:20:49;20.63;;;5.47;;
43527;SDS011;52359;42.658;23.320;2023-06-10T07:23:18;9.55;;;5.13;;
43527;SDS011;52359;42.658;23.320;2023-06-10T07:25:44;8.60;;;5.32;;
43527;SDS011;52359;42.658;23.320;2023-06-10T07:28:10;8.80;;;5.28;;
43527;SDS011;52359;42.658;23.320;2023-06-10T07:30:36;12.05;;;5.65;;
43527;SDS011;52359;42.658;23.320;2023-06-10T07:33:02;13.07;;;6.30;;
43527;SDS011;52359;42.658;23.320;2023-06-10T07:35:28;11.57;;;5.38;;
43527;SDS011;52359;42.658;23.320;2023-06-10T07:37:54;11.77;;;6.32;;
43527;SDS011;52359;42.658;23.320;2023-06-10T07:40:20;14.35;;;5.40;;
43527;SDS011;52359;42.658;23.320;2023-06-10T07:42:46;12.57;;;4.63;;
43527;SDS011;52359;42.658;23.320;2023-06-10T07:45:12;7.78;;;4.90;;
43527;SDS011;52359;42.658;23.320;2023-06-10T07:47:38;9.82;;;4.82;;
43527;SDS011;52359;42.658;23.320;2023-06-10T07:50:04;11.45;;;4.57;;
43527;SDS011;52359;42.658;23.320;2023-06-10T07:52:30;7.60;;;4.78;;
43527;SDS011;52359;42.658;23.320;2023-06-10T07:54:56;9.55;;;4.78;;
43527;SDS011;52359;42.658;23.320;2023-06-10T07:57:23;11.57;;;4.80;;
43527;SDS011;52359;42.658;23.320;2023-06-10T07:59:49;15.60;;;5.13;;
43527;SDS011;52359;42.658;23.320;2023-06-10T08:02:15;13.63;;;4.65;;
43527;SDS011;52359;42.658;23.320;2023-06-10T08:04:41;9.30;;;5.10;;
43527;SDS011;52359;42.658;23.320;2023-06-10T08:07:07;13.00;;;5.13;;
43527;SDS011;52359;42.658;23.320;2023-06-10T08:09:33;6.35;;;4.63;;
43527;SDS011;52359;42.658;23.320;2023-06-10T08:11:59;10.50;;;5.60;;
43527;SDS011;52359;42.658;23.320;2023-06-10T08:14:25;9.65;;;4.80;;
43527;SDS011;52359;42.658;23.320;2023-06-10T08:16:51;8.35;;;4.93;;
43527;SDS011;52359;42.658;23.320;2023-06-10T08:19:17;5.28;;;3.60;;
43527;SDS011;52359;42.658;23.320;2023-06-10T08:21:43;5.00;;;4.13;;
43527;SDS011;52359;42.658;23.320;2023-06-10T08:24:09;6.10;;;4.65;;
43527;SDS011;52359;42.658;23.320;2023-06-10T08:26:35;7.93;;;4.55;;
43527;SDS011;52359;42.658;23.320;2023-06-10T08:29:01;5.07;;;4.10;;
43527;SDS011;52359;42.658;23.320;2023-06-10T08:31:27;4.65;;;3.83;;
43527;SDS011;52359;42.658;23.320;2023-06-10T08:33:54;10.63;;;4.40;;
43527;SDS011;52359;42.658;23.320;2023-06-10T08:36:20;9.85;;;4.32;;
43527;SDS011;52359;42.658;23.320;2023-06-10T08:38:46;5.75;;;4.35;;
43527;SDS011;52359;42.658;23.320;2023-06-10T08:41:12;7.65;;;4.40;;
43527;SDS011;52359;42.658;23.320;2023-06-10T08:46:24;4.38;;;3.47;;
43527;SDS011;52359;42.658;23.320;2023-06-10T08:48:52;7.57;;;3.95;;
43527;SDS011;52359;42.658;23.320;2023-06-10T08:51:20;5.82;;;4.70;;
43527;SDS011;52359;42.658;23.320;2023-06-10T08:53:54;6.63;;;3.55;;
43527;SDS011;52359;42.658;23.320;2023-06-10T08:56:23;3.67;;;3.35;;
43527;SDS011;52359;42.658;23.320;2023-06-10T08:58:51;7.18;;;3.67;;
43527;SDS011;52359;42.658;23.320;2023-06-10T09:01:18;5.95;;;3.42;;
43527;SDS011;52359;42.658;23.320;2023-06-10T09:03:44;4.60;;;3.53;;
43527;SDS011;52359;42.658;23.320;2023-06-10T09:06:10;7.75;;;3.08;;
43527;SDS011;52359;42.658;23.320;2023-06-10T09:08:36;9.23;;;3.90;;
43527;SDS011;52359;42.658;23.320;2023-06-10T09:11:02;7.75;;;4.00;;
43527;SDS011;52359;42.658;23.320;2023-06-10T09:13:28;5.15;;;3.80;;
43527;SDS011;52359;42.658;23.320;2023-06-10T09:15:55;8.32;;;3.55;;
43527;SDS011;52359;42.658;23.320;2023-06-10T09:18:25;4.00;;;3.25;;
43527;SDS011;52359;42.658;23.320;2023-06-10T09:20:51;5.35;;;3.60;;
43527;SDS011;52359;42.658;23.320;2023-06-10T09:23:17;5.40;;;3.55;;
43527;SDS011;52359;42.658;23.320;2023-06-10T09:25:43;4.35;;;3.10;;
43527;SDS011;52359;42.658;23.320;2023-06-10T09:28:13;7.65;;;3.13;;
43527;SDS011;52359;42.658;23.320;2023-06-10T09:30:39;4.35;;;3.20;;
43527;SDS011;52359;42.658;23.320;2023-06-10T09:33:09;6.25;;;3.58;;
43527;SDS011;52359;42.658;23.320;2023-06-10T09:35:37;3.63;;;3.10;;
43527;SDS011;52359;42.658;23.320;2023-06-10T09:38:14;8.90;;;3.53;;
43527;SDS011;52359;42.658;23.320;2023-06-10T09:40:51;4.93;;;3.20;;
43527;SDS011;52359;42.658;23.320;2023-06-10T09:43:17;4.18;;;2.88;;
43527;SDS011;52359;42.658;23.320;2023-06-10T09:45:43;8.57;;;3.20;;
43527;SDS011;52359;42.658;23.320;2023-06-10T09:48:12;8.27;;;3.40;;
43527;SDS011;52359;42.658;23.320;2023-06-10T09:50:44;7.63;;;3.17;;
43527;SDS011;52359;42.658;23.320;2023-06-10T09:53:10;3.78;;;3.22;;
43527;SDS011;52359;42.658;23.320;2023-06-10T09:55:37;4.03;;;3.35;;
43527;SDS011;52359;42.658;23.320;2023-06-10T09:58:03;4.15;;;3.53;;
43527;SDS011;52359;42.658;23.320;2023-06-10T10:00:31;4.25;;;3.70;;
43527;SDS011;52359;42.658;23.320;2023-06-10T10:02:58;5.20;;;2.65;;
43527;SDS011;52359;42.658;23.320;2023-06-10T10:05:24;3.58;;;3.10;;
43527;SDS011;52359;42.658;23.320;2023-06-10T10:07:50;4.03;;;2.97;;
43527;SDS011;52359;42.658;23.320;2023-06-10T10:10:17;5.72;;;2.90;;
43527;SDS011;52359;42.658;23.320;2023-06-10T10:12:47;3.28;;;2.85;;
43527;SDS011;52359;42.658;23.320;2023-06-10T10:15:13;4.43;;;3.15;;
43527;SDS011;52359;42.658;23.320;2023-06-10T10:20:34;7.73;;;2.83;;
43527;SDS011;52359;42.658;23.320;2023-06-10T10:23:06;6.18;;;2.85;;
43527;SDS011;52359;42.658;23.320;2023-06-10T10:25:37;3.20;;;2.90;;
43527;SDS011;52359;42.658;23.320;2023-06-10T10:28:09;8.27;;;2.83;;
43527;SDS011;52359;42.658;23.320;2023-06-10T10:30:42;5.45;;;2.83;;
43527;SDS011;52359;42.658;23.320;2023-06-10T10:33:16;3.33;;;2.88;;
43527;SDS011;52359;42.658;23.320;2023-06-10T10:35:48;3.17;;;2.88;;
43527;SDS011;52359;42.658;23.320;2023-06-10T10:38:14;3.75;;;3.15;;
43527;SDS011;52359;42.658;23.320;2023-06-10T10:40:41;3.40;;;2.90;;
43527;SDS011;52359;42.658;23.320;2023-06-10T10:43:09;6.35;;;3.20;;
43527;SDS011;52359;42.658;23.320;2023-06-10T10:45:35;4.07;;;3.10;;
43527;SDS011;52359;42.658;23.320;2023-06-10T10:48:10;3.38;;;2.53;;
43527;SDS011;52359;42.658;23.320;2023-06-10T10:50:37;3.25;;;2.95;;
43527;SDS011;52359;42.658;23.320;2023-06-10T10:53:04;2.67;;;2.35;;
43527;SDS011;52359;42.658;23.320;2023-06-10T10:55:31;3.67;;;3.05;;
43527;SDS011;52359;42.658;23.320;2023-06-10T11:00:35;3.08;;;2.70;;
43527;SDS011;52359;42.658;23.320;2023-06-10T11:05:36;6.10;;;2.90;;
43527;SDS011;52359;42.658;23.320;2023-06-10T11:08:03;2.58;;;2.30;;
43527;SDS011;52359;42.658;23.320;2023-06-10T11:10:30;3.53;;;2.30;;
43527;SDS011;52359;42.658;23.320;2023-06-10T11:12:57;3.80;;;2.75;;
43527;SDS011;52359;42.658;23.320;2023-06-10T11:15:24;4.72;;;2.60;;
43527;SDS011;52359;42.658;23.320;2023-06-10T11:23:47;4.25;;;3.00;;
43527;SDS011;52359;42.658;23.320;2023-06-10T11:28:38;6.23;;;3.17;;
43527;SDS011;52359;42.658;23.320;2023-06-10T11:31:04;5.38;;;3.20;;
43527;SDS011;52359;42.658;23.320;2023-06-10T11:33:31;7.85;;;3.25;;
43527;SDS011;52359;42.658;23.320;2023-06-10T11:35:57;3.63;;;3.33;;
43527;SDS011;52359;42.658;23.320;2023-06-10T11:38:25;3.63;;;2.97;;
43527;SDS011;52359;42.658;23.320;2023-06-10T11:40:52;4.18;;;3.10;;
43527;SDS011;52359;42.658;23.320;2023-06-10T11:43:18;4.75;;;3.45;;
43527;SDS011;52359;42.658;23.320;2023-06-10T11:45:44;5.72;;;3.63;;
43527;SDS011;52359;42.658;23.320;2023-06-10T11:48:10;5.95;;;2.97;;
43527;SDS011;52359;42.658;23.320;2023-06-10T11:50:37;5.55;;;3.38;;
43527;SDS011;52359;42.658;23.320;2023-06-10T11:53:03;9.18;;;3.30;;
43527;SDS011;52359;42.658;23.320;2023-06-10T11:55:41;7.88;;;3.80;;
43527;SDS011;52359;42.658;23.320;2023-06-10T12:00:45;7.85;;;3.33;;
43527;SDS011;52359;42.658;23.320;2023-06-10T12:03:16;5.70;;;3.83;;
43527;SDS011;52359;42.658;23.320;2023-06-10T12:05:58;5.05;;;3.22;;
43527;SDS011;52359;42.658;23.320;2023-06-10T12:08:29;6.82;;;3.38;;
43527;SDS011;52359;42.658;23.320;2023-06-10T12:10:55;5.63;;;3.80;;
43527;SDS011;52359;42.658;23.320;2023-06-10T12:13:21;5.20;;;3.67;;
43527;SDS011;52359;42.658;23.320;2023-06-10T12:15:49;10.88;;;3.72;;
43527;SDS011;52359;42.658;23.320;2023-06-10T12:18:22;5.22;;;3.40;;
43527;SDS011;52359;42.658;23.320;2023-06-10T12:20:48;9.23;;;3.90;;
43527;SDS011;52359;42.658;23.320;2023-06-10T12:23:16;12.80;;;3.08;;
43527;SDS011;52359;42.658;23.320;2023-06-10T12:25:49;5.63;;;3.78;;
43527;SDS011;52359;42.658;23.320;2023-06-10T12:28:23;7.13;;;3.38;;
43527;SDS011;52359;42.658;23.320;2023-06-10T12:30:50;3.45;;;2.85;;
43527;SDS011;52359;42.658;23.320;2023-06-10T12:33:19;12.63;;;3.55;;
43527;SDS011;52359;42.658;23.320;2023-06-10T12:35:51;3.78;;;3.33;;
43527;SDS011;52359;42.658;23.320;2023-06-10T12:38:24;3.42;;;3.10;;
43527;SDS011;52359;42.658;23.320;2023-06-10T12:40:54;7.82;;;3.53;;
43527;SDS011;52359;42.658;23.320;2023-06-10T12:43:26;5.30;;;3.75;;
43527;SDS011;52359;42.658;23.320;2023-06-10T12:45:52;10.77;;;3.33;;
43527;SDS011;52359;42.658;23.320;2023-06-10T12:48:22;4.50;;;3.53;;
43527;SDS011;52359;42.658;23.320;2023-06-10T12:50:55;3.72;;;3.10;;
43527;SDS011;52359;42.658;23.320;2023-06-10T12:53:21;6.18;;;3.25;;
43527;SDS011;52359;42.658;23.320;2023-06-10T12:55:48;4.93;;;3.45;;
43527;SDS011;52359;42.658;23.320;2023-06-10T12:58:14;5.95;;;3.30;;
43527;SDS011;52359;42.658;23.320;2023-06-10T13:00:40;4.40;;;3.13;;
43527;SDS011;52359;42.658;23.320;2023-06-10T13:03:07;3.38;;;2.65;;
43527;SDS011;52359;42.658;23.320;2023-06-10T13:05:35;11.15;;;3.45;;
43527;SDS011;52359;42.658;23.320;2023-06-10T13:08:08;3.45;;;3.15;;
43527;SDS011;52359;42.658;23.320;2023-06-10T13:10:35;6.50;;;3.22;;
43527;SDS011;52359;42.658;23.320;2023-06-10T13:13:01;3.95;;;2.92;;
43527;SDS011;52359;42.658;23.320;2023-06-10T13:15:30;6.93;;;3.05;;
43527;SDS011;52359;42.658;23.320;2023-06-10T13:17:56;3.33;;;3.10;;
43527;SDS011;52359;42.658;23.320;2023-06-10T13:20:22;6.68;;;3.65;;
43527;SDS011;52359;42.658;23.320;2023-06-10T13:22:48;5.65;;;3.25;;
43527;SDS011;52359;42.658;23.320;2023-06-10T13:25:14;3.40;;;3.10;;
43527;SDS011;52359;42.658;23.320;2023-06-10T13:27:40;5.57;;;3.00;;
43527;SDS011;52359;42.658;23.320;2023-06-10T13:30:08;10.82;;;3.13;;
43527;SDS011;52359;42.658;23.320;2023-06-10T13:32:34;4.70;;;3.38;;
43527;SDS011;52359;42.658;23.320;2023-06-10T13:35:00;6.95;;;3.67;;
43527;SDS011;52359;42.658;23.320;2023-06-10T13:37:27;10.52;;;3.90;;
43527;SDS011;52359;42.658;23.320;2023-06-10T13:39:53;10.68;;;3.47;;
43527;SDS011;52359;42.658;23.320;2023-06-10T13:42:19;6.75;;;4.13;;
43527;SDS011;52359;42.658;23.320;2023-06-10T13:44:48;9.75;;;4.03;;
43527;SDS011;52359;42.658;23.320;2023-06-10T13:47:16;8.35;;;3.65;;
43527;SDS011;52359;42.658;23.320;2023-06-10T13:49:42;8.73;;;4.22;;
43527;SDS011;52359;42.658;23.320;2023-06-10T13:52:08;5.90;;;3.58;;
43527;SDS011;52359;42.658;23.320;2023-06-10T13:54:34;6.93;;;3.85;;
43527;SDS011;52359;42.658;23.320;2023-06-10T13:57:01;5.63;;;4.30;;
43527;SDS011;52359;42.658;23.320;2023-06-10T13:59:27;8.18;;;4.20;;
43527;SDS011;52359;42.658;23.320;2023-06-10T14:01:53;6.25;;;3.90;;
43527;SDS011;52359;42.658;23.320;2023-06-10T14:04:19;7.88;;;4.05;;
43527;SDS011;52359;42.658;23.320;2023-06-10T14:06:46;6.18;;;4.22;;
43527;SDS011;52359;42.658;23.320;2023-06-10T14:09:15;6.32;;;4.18;;
43527;SDS011;52359;42.658;23.320;2023-06-10T14:11:41;6.95;;;4.18;;
43527;SDS011;52359;42.658;23.320;2023-06-10T14:14:07;10.25;;;3.95;;
43527;SDS011;52359;42.658;23.320;2023-06-10T14:16:33;7.13;;;3.85;;
43527;SDS011;52359;42.658;23.320;2023-06-10T14:18:58;8.18;;;5.05;;
43527;SDS011;52359;42.658;23.320;2023-06-10T14:21:25;10.10;;;4.63;;
43527;SDS011;52359;42.658;23.320;2023-06-10T14:23:51;8.95;;;4.43;;
43527;SDS011;52359;42.658;23.320;2023-06-10T14:26:18;6.35;;;4.50;;
43527;SDS011;52359;42.658;23.320;2023-06-10T14:28:46;4.85;;;4.32;;
43527;SDS011;52359;42.658;23.320;2023-06-10T14:31:12;10.52;;;4.68;;
43527;SDS011;52359;42.658;23.320;2023-06-10T14:33:38;4.85;;;3.83;;
43527;SDS011;52359;42.658;23.320;2023-06-10T14:36:07;5.50;;;4.85;;
43527;SDS011;52359;42.658;23.320;2023-06-10T14:38:32;11.82;;;5.03;;
43527;SDS011;52359;42.658;23.320;2023-06-10T14:40:58;5.68;;;5.00;;
43527;SDS011;52359;42.658;23.320;2023-06-10T14:43:24;8.50;;;4.50;;
43527;SDS011;52359;42.658;23.320;2023-06-10T14:45:49;6.75;;;4.00;;
43527;SDS011;52359;42.658;23.320;2023-06-10T14:48:16;5.75;;;4.07;;
43527;SDS011;52359;42.658;23.320;2023-06-10T14:50:41;3.83;;;3.33;;
43527;SDS011;52359;42.658;23.320;2023-06-10T14:53:10;4.53;;;4.13;;
43527;SDS011;52359;42.658;23.320;2023-06-10T14:55:36;9.73;;;3.70;;
43527;SDS011;52359;42.658;23.320;2023-06-10T14:58:01;4.38;;;3.97;;
43527;SDS011;52359;42.658;23.320;2023-06-10T15:00:27;5.05;;;4.00;;
43527;SDS011;52359;42.658;23.320;2023-06-10T15:02:53;10.48;;;3.88;;
43527;SDS011;52359;42.658;23.320;2023-06-10T15:05:20;4.90;;;4.20;;
43527;SDS011;52359;42.658;23.320;2023-06-10T15:07:46;5.93;;;3.85;;
43527;SDS011;52359;42.658;23.320;2023-06-10T15:10:12;4.05;;;3.75;;
43527;SDS011;52359;42.658;23.320;2023-06-10T15:12:38;3.97;;;3.45;;
43527;SDS011;52359;42.658;23.320;2023-06-10T15:15:04;10.55;;;3.40;;
43527;SDS011;52359;42.658;23.320;2023-06-10T15:17:30;3.88;;;3.47;;
43527;SDS011;52359;42.658;23.320;2023-06-10T15:19:56;4.88;;;3.92;;
43527;SDS011;52359;42.658;23.320;2023-06-10T15:22:21;9.40;;;3.75;;
43527;SDS011;52359;42.658;23.320;2023-06-10T15:24:47;3.70;;;3.15;;
43527;SDS011;52359;42.658;23.320;2023-06-10T15:27:13;4.45;;;3.72;;
43527;SDS011;52359;42.658;23.320;2023-06-10T15:29:39;4.25;;;3.40;;
43527;SDS011;52359;42.658;23.320;2023-06-10T15:32:05;3.78;;;3.38;;
43527;SDS011;52359;42.658;23.320;2023-06-10T15:34:31;6.07;;;3.72;;
43527;SDS011;52359;42.658;23.320;2023-06-10T15:36:57;7.65;;;3.33;;
43527;SDS011;52359;42.658;23.320;2023-06-10T15:39:22;3.95;;;3.53;;
43527;SDS011;52359;42.658;23.320;2023-06-10T15:41:50;3.80;;;3.45;;
43527;SDS011;52359;42.658;23.320;2023-06-10T15:44:15;3.80;;;3.28;;
43527;SDS011;52359;42.658;23.320;2023-06-10T15:46:41;5.55;;;3.83;;
43527;SDS011;52359;42.658;23.320;2023-06-10T15:49:07;4.25;;;3.88;;
43527;SDS011;52359;42.658;23.320;2023-06-10T15:51:33;6.60;;;3.80;;
43527;SDS011;52359;42.658;23.320;2023-06-10T15:53:58;5.78;;;3.63;;
43527;SDS011;52359;42.658;23.320;2023-06-10T15:56:24;5.68;;;3.97;;
43527;SDS011;52359;42.658;23.320;2023-06-10T15:58:50;4.20;;;3.53;;
43527;SDS011;52359;42.658;23.320;2023-06-10T16:01:16;4.82;;;3.60;;
43527;SDS011;52359;42.658;23.320;2023-06-10T16:03:42;7.38;;;3.70;;
43527;SDS011;52359;42.658;23.320;2023-06-10T16:06:08;5.05;;;3.83;;
43527;SDS011;52359;42.658;23.320;2023-06-10T16:08:34;3.92;;;3.55;;
43527;SDS011;52359;42.658;23.320;2023-06-10T16:11:00;7.32;;;4.55;;
43527;SDS011;52359;42.658;23.320;2023-06-10T16:13:25;4.95;;;4.13;;
43527;SDS011;52359;42.658;23.320;2023-06-10T16:15:59;10.68;;;4.15;;
43527;SDS011;52359;42.658;23.320;2023-06-10T16:18:24;4.97;;;4.47;;
43527;SDS011;52359;42.658;23.320;2023-06-10T16:20:50;6.68;;;3.80;;
43527;SDS011;52359;42.658;23.320;2023-06-10T16:23:16;9.85;;;4.70;;
43527;SDS011;52359;42.658;23.320;2023-06-10T16:28:27;13.50;;;5.28;;
43527;SDS011;52359;42.658;23.320;2023-06-10T16:30:52;10.68;;;4.47;;
43527;SDS011;52359;42.658;23.320;2023-06-10T16:33:18;4.97;;;4.30;;
43527;SDS011;52359;42.658;23.320;2023-06-10T16:35:43;9.35;;;4.75;;
43527;SDS011;52359;42.658;23.320;2023-06-10T16:38:10;6.25;;;4.57;;
43527;SDS011;52359;42.658;23.320;2023-06-10T16:40:35;9.95;;;4.50;;
43527;SDS011;52359;42.658;23.320;2023-06-10T16:43:01;5.05;;;4.40;;
43527;SDS011;52359;42.658;23.320;2023-06-10T16:45:27;8.48;;;4.45;;
43527;SDS011;52359;42.658;23.320;2023-06-10T16:47:53;6.93;;;3.83;;
43527;SDS011;52359;42.658;23.320;2023-06-10T16:50:19;6.85;;;3.78;;
43527;SDS011;52359;42.658;23.320;2023-06-10T16:52:45;8.15;;;4.43;;
43527;SDS011;52359;42.658;23.320;2023-06-10T16:55:11;7.30;;;4.57;;
43527;SDS011;52359;42.658;23.320;2023-06-10T16:57:37;9.90;;;4.68;;
43527;SDS011;52359;42.658;23.320;2023-06-10T17:00:03;4.63;;;3.90;;
43527;SDS011;52359;42.658;23.320;2023-06-10T17:02:31;5.28;;;4.13;;
43527;SDS011;52359;42.658;23.320;2023-06-10T17:04:57;7.03;;;4.35;;
43527;SDS011;52359;42.658;23.320;2023-06-10T17:07:23;11.02;;;4.30;;
43527;SDS011;52359;42.658;23.320;2023-06-10T17:09:49;7.00;;;4.20;;
43527;SDS011;52359;42.658;23.320;2023-06-10T17:12:15;9.60;;;4.07;;
43527;SDS011;52359;42.658;23.320;2023-06-10T17:14:41;5.75;;;4.10;;
43527;SDS011;52359;42.658;23.320;2023-06-10T17:17:07;6.55;;;4.57;;
43527;SDS011;52359;42.658;23.320;2023-06-10T17:19:33;8.40;;;4.32;;
43527;SDS011;52359;42.658;23.320;2023-06-10T17:22:00;5.93;;;4.20;;
43527;SDS011;52359;42.658;23.320;2023-06-10T17:24:26;8.82;;;3.85;;
43527;SDS011;52359;42.658;23.320;2023-06-10T17:26:52;13.18;;;3.70;;
43527;SDS011;52359;42.658;23.320;2023-06-10T17:29:18;4.72;;;3.85;;
43527;SDS011;52359;42.658;23.320;2023-06-10T17:31:44;7.07;;;3.58;;
43527;SDS011;52359;42.658;23.320;2023-06-10T17:34:10;10.13;;;3.70;;
43527;SDS011;52359;42.658;23.320;2023-06-10T17:36:36;8.23;;;3.72;;
43527;SDS011;52359;42.658;23.320;2023-06-10T17:39:03;9.88;;;3.92;;
43527;SDS011;52359;42.658;23.320;2023-06-10T17:41:30;4.25;;;3.47;;
43527;SDS011;52359;42.658;23.320;2023-06-10T17:43:56;4.10;;;3.67;;
43527;SDS011;52359;42.658;23.320;2023-06-10T17:46:22;6.05;;;3.92;;
43527;SDS011;52359;42.658;23.320;2023-06-10T17:48:48;7.35;;;3.55;;
43527;SDS011;52359;42.658;23.320;2023-06-10T17:51:14;9.60;;;3.65;;
43527;SDS011;52359;42.658;23.320;2023-06-10T17:53:41;8.07;;;3.65;;
43527;SDS011;52359;42.658;23.320;2023-06-10T17:56:07;7.40;;;4.00;;
43527;SDS011;52359;42.658;23.320;2023-06-10T17:58:33;6.65;;;3.97;;
43527;SDS011;52359;42.658;23.320;2023-06-10T18:00:59;8.13;;;4.22;;
43527;SDS011;52359;42.658;23.320;2023-06-10T18:03:25;11.45;;;4.47;;
43527;SDS011;52359;42.658;23.320;2023-06-10T18:05:54;7.72;;;4.65;;
43527;SDS011;52359;42.658;23.320;2023-06-10T18:08:20;5.63;;;4.03;;
43527;SDS011;52359;42.658;23.320;2023-06-10T18:10:47;6.40;;;4.38;;
43527;SDS011;52359;42.658;23.320;2023-06-10T18:13:13;6.82;;;3.88;;
43527;SDS011;52359;42.658;23.320;2023-06-10T18:15:39;9.80;;;3.92;;
43527;SDS011;52359;42.658;23.320;2023-06-10T18:18:05;5.45;;;4.28;;
43527;SDS011;52359;42.658;23.320;2023-06-10T18:20:31;5.18;;;4.25;;
43527;SDS011;52359;42.658;23.320;2023-06-10T18:22:57;3.97;;;3.65;;
43527;SDS011;52359;42.658;23.320;2023-06-10T18:25:23;5.22;;;4.15;;
43527;SDS011;52359;42.658;23.320;2023-06-10T18:27:49;12.82;;;4.00;;
43527;SDS011;52359;42.658;23.320;2023-06-10T18:30:15;6.18;;;4.10;;
43527;SDS011;52359;42.658;23.320;2023-06-10T18:32:42;12.57;;;4.57;;
43527;SDS011;52359;42.658;23.320;2023-06-10T18:35:08;15.45;;;4.78;;
43527;SDS011;52359;42.658;23.320;2023-06-10T18:37:35;7.45;;;4.00;;
43527;SDS011;52359;42.658;23.320;2023-06-10T18:40:01;5.55;;;4.50;;
43527;SDS011;52359;42.658;23.320;2023-06-10T18:42:28;9.10;;;4.35;;
43527;SDS011;52359;42.658;23.320;2023-06-10T18:44:54;11.52;;;5.10;;
43527;SDS011;52359;42.658;23.320;2023-06-10T18:47:20;6.95;;;4.22;;
43527;SDS011;52359;42.658;23.320;2023-06-10T18:49:47;11.48;;;4.03;;
43527;SDS011;52359;42.658;23.320;2023-06-10T18:52:13;5.63;;;4.65;;
43527;SDS011;52359;42.658;23.320;2023-06-10T18:54:39;6.13;;;4.82;;
43527;SDS011;52359;42.658;23.320;2023-06-10T18:57:05;8.63;;;5.53;;
43527;SDS011;52359;42.658;23.320;2023-06-10T18:59:32;8.40;;;5.15;;
43527;SDS011;52359;42.658;23.320;2023-06-10T19:01:58;10.10;;;5.57;;
43527;SDS011;52359;42.658;23.320;2023-06-10T19:04:24;13.95;;;5.32;;
43527;SDS011;52359;42.658;23.320;2023-06-10T19:06:50;11.00;;;5.10;;
43527;SDS011;52359;42.658;23.320;2023-06-10T19:09:16;16.13;;;6.18;;
43527;SDS011;52359;42.658;23.320;2023-06-10T19:11:42;13.23;;;5.68;;
43527;SDS011;52359;42.658;23.320;2023-06-10T19:14:08;14.13;;;5.68;;
43527;SDS011;52359;42.658;23.320;2023-06-10T19:16:35;10.13;;;5.05;;
43527;SDS011;52359;42.658;23.320;2023-06-10T19:19:00;8.43;;;5.45;;
43527;SDS011;52359;42.658;23.320;2023-06-10T19:21:26;12.15;;;5.47;;
43527;SDS011;52359;42.658;23.320;2023-06-10T19:23:52;8.07;;;4.80;;
43527;SDS011;52359;42.658;23.320;2023-06-10T19:26:17;18.98;;;5.18;;
43527;SDS011;52359;42.658;23.320;2023-06-10T19:28:43;13.48;;;6.32;;
43527;SDS011;52359;42.658;23.320;2023-06-10T19:31:09;12.40;;;6.25;;
43527;SDS011;52359;42.658;23.320;2023-06-10T19:33:34;9.30;;;5.35;;
43527;SDS011;52359;42.658;23.320;2023-06-10T19:36:00;9.07;;;5.70;;
43527;SDS011;52359;42.658;23.320;2023-06-10T19:38:26;7.32;;;5.53;;
43527;SDS011;52359;42.658;23.320;2023-06-10T19:40:52;11.40;;;5.65;;
43527;SDS011;52359;42.658;23.320;2023-06-10T19:43:18;9.25;;;5.88;;
43527;SDS011;52359;42.658;23.320;2023-06-10T19:45:44;10.10;;;5.60;;
43527;SDS011;52359;42.658;23.320;2023-06-10T19:48:09;12.20;;;6.10;;
43527;SDS011;52359;42.658;23.320;2023-06-10T19:50:35;16.23;;;5.93;;
43527;SDS011;52359;42.658;23.320;2023-06-10T19:53:01;7.72;;;6.03;;
43527;SDS011;52359;42.658;23.320;2023-06-10T19:55:27;8.27;;;6.68;;
43527;SDS011;52359;42.658;23.320;2023-06-10T19:57:52;10.98;;;6.20;;
43527;SDS011;52359;42.658;23.320;2023-06-10T20:00:20;15.90;;;6.30;;
43527;SDS011;52359;42.658;23.320;2023-06-10T20:02:47;21.98;;;5.82;;
43527;SDS011;52359;42.658;23.320;2023-06-10T20:05:13;10.35;;;5.93;;
43527;SDS011;52359;42.658;23.320;2023-06-10T20:07:39;7.30;;;5.40;;
43527;SDS011;52359;42.658;23.320;2023-06-10T20:10:05;12.18;;;5.53;;
43527;SDS011;52359;42.658;23.320;2023-06-10T20:12:31;11.32;;;5.63;;
43527;SDS011;52359;42.658;23.320;2023-06-10T20:14:57;14.60;;;6.22;;
43527;SDS011;52359;42.658;23.320;2023-06-10T20:17:23;14.30;;;4.60;;
43527;SDS011;52359;42.658;23.320;2023-06-10T20:19:49;6.95;;;5.55;;
43527;SDS011;52359;42.658;23.320;2023-06-10T20:22:20;9.43;;;5.78;;
43527;SDS011;52359;42.658;23.320;2023-06-10T20:24:46;10.07;;;6.47;;
43527;SDS011;52359;42.658;23.320;2023-06-10T20:27:13;13.95;;;6.18;;
43527;SDS011;52359;42.658;23.320;2023-06-10T20:29:39;11.57;;;6.43;;
43527;SDS011;52359;42.658;23.320;2023-06-10T20:32:06;11.48;;;6.85;;
43527;SDS011;52359;42.658;23.320;2023-06-10T20:34:32;13.98;;;6.65;;
43527;SDS011;52359;42.658;23.320;2023-06-10T20:36:58;13.60;;;7.80;;
43527;SDS011;52359;42.658;23.320;2023-06-10T20:39:25;17.15;;;7.72;;
43527;SDS011;52359;42.658;23.320;2023-06-10T20:41:51;13.95;;;7.68;;
